sensor_id;sensor_type;location;lat;lon;timestamp;temperature;humidity
10538;DHT22;5317;49.048;8.468;2023-08-21T00:01:01;28.30;79.00
10538;DHT22;5317;49.048;8.468;2023-08-21T00:03:28;28.30;79.00
10538;DHT22;5317;49.048;8.468;2023-08-21T00:05:55;28.20;78.90
10538;DHT22;5317;49.048;8.468;2023-08-21T00:08:22;28.20;79.10
10538;DHT22;5317;49.048;8.468;2023-08-21T00:10:50;28.20;79.10
10538;DHT22;5317;49.048;8.468;2023-08-21T00:13:17;28.20;79.10
10538;DHT22;5317;49.048;8.468;2023-08-21T00:15:44;28.20;79.20
10538;DHT22;5317;49.048;8.468;2023-08-21T00:18:11;28.10;79.40
10538;DHT22;5317;49.048;8.468;2023-08-21T00:20:38;28.10;79.40
10538;DHT22;5317;49.048;8.468;2023-08-21T00:23:07;28.10;79.40
10538;DHT22;5317;49.048;8.468;2023-08-21T00:25:34;28.10;79.40
10538;DHT22;5317;49.048;8.468;2023-08-21T00:28:02;28.10;79.40
10538;DHT22;5317;49.048;8.468;2023-08-21T00:30:29;28.10;79.60
10538;DHT22;5317;49.048;8.468;2023-08-21T00:32:56;28.10;79.70
10538;DHT22;5317;49.048;8.468;2023-08-21T00:35:23;28.10;79.80
10538;DHT22;5317;49.048;8.468;2023-08-21T00:37:50;28.10;79.80
10538;DHT22;5317;49.048;8.468;2023-08-21T00:40:17;28.10;80.00
10538;DHT22;5317;49.048;8.468;2023-08-21T00:42:44;28.00;79.90
10538;DHT22;5317;49.048;8.468;2023-08-21T00:45:12;28.00;80.00
10538;DHT22;5317;49.048;8.468;2023-08-21T00:47:39;27.90;80.00
10538;DHT22;5317;49.048;8.468;2023-08-21T00:50:07;27.90;80.00
10538;DHT22;5317;49.048;8.468;2023-08-21T00:52:35;27.90;80.00
10538;DHT22;5317;49.048;8.468;2023-08-21T00:55:03;27.90;80.00
10538;DHT22;5317;49.048;8.468;2023-08-21T00:57:30;27.80;79.80
10538;DHT22;5317;49.048;8.468;2023-08-21T00:59:59;27.90;80.00
10538;DHT22;5317;49.048;8.468;2023-08-21T01:02:27;27.90;80.10
10538;DHT22;5317;49.048;8.468;2023-08-21T01:04:54;27.80;80.40
10538;DHT22;5317;49.048;8.468;2023-08-21T01:07:24;27.80;80.50
10538;DHT22;5317;49.048;8.468;2023-08-21T01:09:54;27.70;80.40
10538;DHT22;5317;49.048;8.468;2023-08-21T01:12:25;27.70;80.50
10538;DHT22;5317;49.048;8.468;2023-08-21T01:14:59;27.70;80.40
10538;DHT22;5317;49.048;8.468;2023-08-21T01:17:29;27.70;80.50
10538;DHT22;5317;49.048;8.468;2023-08-21T01:19:56;27.60;80.50
10538;DHT22;5317;49.048;8.468;2023-08-21T01:22:26;27.60;80.80
10538;DHT22;5317;49.048;8.468;2023-08-21T01:24:54;27.60;81.10
10538;DHT22;5317;49.048;8.468;2023-08-21T01:27:21;27.60;81.20
10538;DHT22;5317;49.048;8.468;2023-08-21T01:29:48;27.50;81.20
10538;DHT22;5317;49.048;8.468;2023-08-21T01:32:21;27.40;81.40
10538;DHT22;5317;49.048;8.468;2023-08-21T01:34:50;27.40;81.60
10538;DHT22;5317;49.048;8.468;2023-08-21T01:37:18;27.40;81.50
10538;DHT22;5317;49.048;8.468;2023-08-21T01:39:45;27.40;81.50
10538;DHT22;5317;49.048;8.468;2023-08-21T01:42:13;27.40;81.50
10538;DHT22;5317;49.048;8.468;2023-08-21T01:44:40;27.40;81.60
10538;DHT22;5317;49.048;8.468;2023-08-21T01:47:07;27.40;81.50
10538;DHT22;5317;49.048;8.468;2023-08-21T01:49:34;27.40;81.40
10538;DHT22;5317;49.048;8.468;2023-08-21T01:52:01;27.40;81.10
10538;DHT22;5317;49.048;8.468;2023-08-21T01:54:28;27.30;81.00
10538;DHT22;5317;49.048;8.468;2023-08-21T01:56:54;27.30;81.00
10538;DHT22;5317;49.048;8.468;2023-08-21T01:59:24;27.20;81.10
10538;DHT22;5317;49.048;8.468;2023-08-21T02:01:51;27.20;81.60
10538;DHT22;5317;49.048;8.468;2023-08-21T02:04:17;27.20;81.80
10538;DHT22;5317;49.048;8.468;2023-08-21T02:06:44;27.20;81.70
10538;DHT22;5317;49.048;8.468;2023-08-21T02:09:11;27.20;81.70
10538;DHT22;5317;49.048;8.468;2023-08-21T02:11:38;27.20;81.70
10538;DHT22;5317;49.048;8.468;2023-08-21T02:14:05;27.10;81.70
10538;DHT22;5317;49.048;8.468;2023-08-21T02:16:33;27.10;82.50
10538;DHT22;5317;49.048;8.468;2023-08-21T02:19:00;27.10;81.80
10538;DHT22;5317;49.048;8.468;2023-08-21T02:21:27;27.10;81.80
10538;DHT22;5317;49.048;8.468;2023-08-21T02:23:53;27.20;81.90
10538;DHT22;5317;49.048;8.468;2023-08-21T02:26:20;27.10;81.90
10538;DHT22;5317;49.048;8.468;2023-08-21T02:28:47;27.10;82.10
10538;DHT22;5317;49.048;8.468;2023-08-21T02:31:14;27.00;82.80
10538;DHT22;5317;49.048;8.468;2023-08-21T02:33:42;27.00;82.10
10538;DHT22;5317;49.048;8.468;2023-08-21T02:36:09;26.90;82.20
10538;DHT22;5317;49.048;8.468;2023-08-21T02:38:36;26.90;82.30
10538;DHT22;5317;49.048;8.468;2023-08-21T02:41:02;26.90;83.20
10538;DHT22;5317;49.048;8.468;2023-08-21T02:43:29;26.90;82.50
10538;DHT22;5317;49.048;8.468;2023-08-21T02:45:56;26.80;82.50
10538;DHT22;5317;49.048;8.468;2023-08-21T02:48:23;26.80;82.50
10538;DHT22;5317;49.048;8.468;2023-08-21T02:50:51;26.80;82.60
10538;DHT22;5317;49.048;8.468;2023-08-21T02:53:18;26.70;82.60
10538;DHT22;5317;49.048;8.468;2023-08-21T02:55:44;26.80;82.70
10538;DHT22;5317;49.048;8.468;2023-08-21T02:58:11;26.80;82.80
10538;DHT22;5317;49.048;8.468;2023-08-21T03:00:38;26.80;83.10
10538;DHT22;5317;49.048;8.468;2023-08-21T03:03:05;26.70;83.10
10538;DHT22;5317;49.048;8.468;2023-08-21T03:05:32;26.70;83.20
10538;DHT22;5317;49.048;8.468;2023-08-21T03:08:00;26.70;83.10
10538;DHT22;5317;49.048;8.468;2023-08-21T03:10:27;26.70;83.10
10538;DHT22;5317;49.048;8.468;2023-08-21T03:12:55;26.70;82.90
10538;DHT22;5317;49.048;8.468;2023-08-21T03:15:22;26.70;82.70
10538;DHT22;5317;49.048;8.468;2023-08-21T03:17:49;26.60;82.80
10538;DHT22;5317;49.048;8.468;2023-08-21T03:20:16;26.60;82.70
10538;DHT22;5317;49.048;8.468;2023-08-21T03:22:44;26.60;82.80
10538;DHT22;5317;49.048;8.468;2023-08-21T03:25:12;26.60;82.70
10538;DHT22;5317;49.048;8.468;2023-08-21T03:27:39;26.60;82.80
10538;DHT22;5317;49.048;8.468;2023-08-21T03:30:10;26.60;82.80
10538;DHT22;5317;49.048;8.468;2023-08-21T03:32:40;26.50;82.70
10538;DHT22;5317;49.048;8.468;2023-08-21T03:35:07;26.50;82.90
10538;DHT22;5317;49.048;8.468;2023-08-21T03:37:34;26.50;83.10
10538;DHT22;5317;49.048;8.468;2023-08-21T03:40:02;26.40;83.30
10538;DHT22;5317;49.048;8.468;2023-08-21T03:42:30;26.40;83.50
10538;DHT22;5317;49.048;8.468;2023-08-21T03:44:57;26.40;83.80
10538;DHT22;5317;49.048;8.468;2023-08-21T03:47:24;26.40;83.90
10538;DHT22;5317;49.048;8.468;2023-08-21T03:49:50;26.30;84.00
10538;DHT22;5317;49.048;8.468;2023-08-21T03:52:17;26.30;84.10
10538;DHT22;5317;49.048;8.468;2023-08-21T03:54:44;26.30;84.20
10538;DHT22;5317;49.048;8.468;2023-08-21T03:57:11;26.30;84.00
10538;DHT22;5317;49.048;8.468;2023-08-21T03:59:40;26.30;83.90
10538;DHT22;5317;49.048;8.468;2023-08-21T04:02:07;26.30;83.90
10538;DHT22;5317;49.048;8.468;2023-08-21T04:04:34;26.30;83.90
10538;DHT22;5317;49.048;8.468;2023-08-21T04:07:00;26.30;83.90
10538;DHT22;5317;49.048;8.468;2023-08-21T04:09:27;26.20;83.90
10538;DHT22;5317;49.048;8.468;2023-08-21T04:11:54;26.20;84.00
10538;DHT22;5317;49.048;8.468;2023-08-21T04:14:21;26.20;84.00
10538;DHT22;5317;49.048;8.468;2023-08-21T04:16:49;26.20;83.90
10538;DHT22;5317;49.048;8.468;2023-08-21T04:19:16;26.20;83.80
10538;DHT22;5317;49.048;8.468;2023-08-21T04:21:43;26.20;83.70
10538;DHT22;5317;49.048;8.468;2023-08-21T04:24:09;26.20;83.60
10538;DHT22;5317;49.048;8.468;2023-08-21T04:26:36;26.20;83.70
10538;DHT22;5317;49.048;8.468;2023-08-21T04:29:03;26.20;83.80
10538;DHT22;5317;49.048;8.468;2023-08-21T04:31:30;26.20;83.80
10538;DHT22;5317;49.048;8.468;2023-08-21T04:33:58;26.20;83.90
10538;DHT22;5317;49.048;8.468;2023-08-21T04:36:25;26.10;83.90
10538;DHT22;5317;49.048;8.468;2023-08-21T04:38:51;26.20;84.10
10538;DHT22;5317;49.048;8.468;2023-08-21T04:41:18;26.20;85.00
10538;DHT22;5317;49.048;8.468;2023-08-21T04:43:45;26.10;84.30
10538;DHT22;5317;49.048;8.468;2023-08-21T04:46:12;26.10;84.30
10538;DHT22;5317;49.048;8.468;2023-08-21T04:48:39;26.10;84.30
10538;DHT22;5317;49.048;8.468;2023-08-21T04:51:07;26.10;84.30
10538;DHT22;5317;49.048;8.468;2023-08-21T04:53:34;26.10;84.60
10538;DHT22;5317;49.048;8.468;2023-08-21T04:56:01;26.00;84.50
10538;DHT22;5317;49.048;8.468;2023-08-21T04:58:28;26.10;85.40
10538;DHT22;5317;49.048;8.468;2023-08-21T05:00:55;26.00;84.70
10538;DHT22;5317;49.048;8.468;2023-08-21T05:03:22;26.00;84.90
10538;DHT22;5317;49.048;8.468;2023-08-21T05:05:52;26.00;85.00
10538;DHT22;5317;49.048;8.468;2023-08-21T05:08:22;26.00;85.20
10538;DHT22;5317;49.048;8.468;2023-08-21T05:10:54;26.00;85.30
10538;DHT22;5317;49.048;8.468;2023-08-21T05:13:21;26.00;85.50
10538;DHT22;5317;49.048;8.468;2023-08-21T05:15:51;26.00;85.30
10538;DHT22;5317;49.048;8.468;2023-08-21T05:18:18;26.00;85.60
10538;DHT22;5317;49.048;8.468;2023-08-21T05:20:46;26.00;85.50
10538;DHT22;5317;49.048;8.468;2023-08-21T05:23:13;26.00;85.70
10538;DHT22;5317;49.048;8.468;2023-08-21T05:25:41;26.00;85.90
10538;DHT22;5317;49.048;8.468;2023-08-21T05:28:08;26.10;86.30
10538;DHT22;5317;49.048;8.468;2023-08-21T05:30:36;26.10;86.30
10538;DHT22;5317;49.048;8.468;2023-08-21T05:33:03;26.10;86.40
10538;DHT22;5317;49.048;8.468;2023-08-21T05:35:33;26.10;86.50
10538;DHT22;5317;49.048;8.468;2023-08-21T05:37:59;26.20;87.00
10538;DHT22;5317;49.048;8.468;2023-08-21T05:40:26;26.20;87.00
10538;DHT22;5317;49.048;8.468;2023-08-21T05:42:54;26.20;87.00
10538;DHT22;5317;49.048;8.468;2023-08-21T05:45:21;26.30;87.30
10538;DHT22;5317;49.048;8.468;2023-08-21T05:47:48;26.30;87.30
10538;DHT22;5317;49.048;8.468;2023-08-21T05:50:15;26.30;87.30
10538;DHT22;5317;49.048;8.468;2023-08-21T05:52:42;26.40;87.30
10538;DHT22;5317;49.048;8.468;2023-08-21T05:55:09;26.40;87.40
10538;DHT22;5317;49.048;8.468;2023-08-21T05:57:36;26.40;87.40
10538;DHT22;5317;49.048;8.468;2023-08-21T06:00:06;26.50;87.40
10538;DHT22;5317;49.048;8.468;2023-08-21T06:02:34;26.50;87.40
10538;DHT22;5317;49.048;8.468;2023-08-21T06:05:01;26.50;87.00
10538;DHT22;5317;49.048;8.468;2023-08-21T06:07:28;26.60;87.10
10538;DHT22;5317;49.048;8.468;2023-08-21T06:09:55;26.60;87.00
10538;DHT22;5317;49.048;8.468;2023-08-21T06:12:22;26.70;87.00
10538;DHT22;5317;49.048;8.468;2023-08-21T06:14:49;26.80;86.80
10538;DHT22;5317;49.048;8.468;2023-08-21T06:17:17;26.80;86.60
10538;DHT22;5317;49.048;8.468;2023-08-21T06:19:44;26.90;86.60
10538;DHT22;5317;49.048;8.468;2023-08-21T06:22:11;27.00;86.60
10538;DHT22;5317;49.048;8.468;2023-08-21T06:24:37;27.00;86.60
10538;DHT22;5317;49.048;8.468;2023-08-21T06:27:04;27.10;86.40
10538;DHT22;5317;49.048;8.468;2023-08-21T06:29:31;27.10;86.30
10538;DHT22;5317;49.048;8.468;2023-08-21T06:31:58;27.20;86.30
10538;DHT22;5317;49.048;8.468;2023-08-21T06:34:26;27.30;86.00
10538;DHT22;5317;49.048;8.468;2023-08-21T06:36:53;27.30;85.80
10538;DHT22;5317;49.048;8.468;2023-08-21T06:39:20;27.40;85.70
10538;DHT22;5317;49.048;8.468;2023-08-21T06:41:47;27.50;85.50
10538;DHT22;5317;49.048;8.468;2023-08-21T06:44:14;27.50;85.40
10538;DHT22;5317;49.048;8.468;2023-08-21T06:46:40;27.60;85.10
10538;DHT22;5317;49.048;8.468;2023-08-21T06:49:07;27.60;85.10
10538;DHT22;5317;49.048;8.468;2023-08-21T06:51:35;27.70;85.00
10538;DHT22;5317;49.048;8.468;2023-08-21T06:54:02;27.70;85.00
10538;DHT22;5317;49.048;8.468;2023-08-21T06:56:29;27.70;84.70
10538;DHT22;5317;49.048;8.468;2023-08-21T06:58:56;27.80;84.70
10538;DHT22;5317;49.048;8.468;2023-08-21T07:01:23;27.90;84.20
10538;DHT22;5317;49.048;8.468;2023-08-21T07:03:50;28.00;83.90
10538;DHT22;5317;49.048;8.468;2023-08-21T07:06:16;28.00;83.60
10538;DHT22;5317;49.048;8.468;2023-08-21T07:08:45;28.10;83.60
10538;DHT22;5317;49.048;8.468;2023-08-21T07:11:12;28.10;83.70
10538;DHT22;5317;49.048;8.468;2023-08-21T07:13:39;28.20;83.50
10538;DHT22;5317;49.048;8.468;2023-08-21T07:16:06;28.20;83.30
10538;DHT22;5317;49.048;8.468;2023-08-21T07:18:34;28.30;83.90
10538;DHT22;5317;49.048;8.468;2023-08-21T07:21:02;28.30;82.90
10538;DHT22;5317;49.048;8.468;2023-08-21T07:23:29;28.40;82.60
10538;DHT22;5317;49.048;8.468;2023-08-21T07:25:58;28.50;82.30
10538;DHT22;5317;49.048;8.468;2023-08-21T07:28:26;28.50;82.10
10538;DHT22;5317;49.048;8.468;2023-08-21T07:30:55;28.60;82.20
10538;DHT22;5317;49.048;8.468;2023-08-21T07:33:22;28.70;82.00
10538;DHT22;5317;49.048;8.468;2023-08-21T07:35:57;28.80;82.00
10538;DHT22;5317;49.048;8.468;2023-08-21T07:38:25;28.80;81.80
10538;DHT22;5317;49.048;8.468;2023-08-21T07:41:03;28.90;81.40
10538;DHT22;5317;49.048;8.468;2023-08-21T07:43:31;28.90;80.90
10538;DHT22;5317;49.048;8.468;2023-08-21T07:45:57;29.00;80.80
10538;DHT22;5317;49.048;8.468;2023-08-21T07:48:24;29.10;80.70
10538;DHT22;5317;49.048;8.468;2023-08-21T07:50:51;29.20;80.60
10538;DHT22;5317;49.048;8.468;2023-08-21T07:53:19;29.20;80.40
10538;DHT22;5317;49.048;8.468;2023-08-21T07:55:46;29.30;80.30
10538;DHT22;5317;49.048;8.468;2023-08-21T07:58:14;29.40;80.10
10538;DHT22;5317;49.048;8.468;2023-08-21T08:00:41;29.40;79.40
10538;DHT22;5317;49.048;8.468;2023-08-21T08:03:08;29.50;79.80
10538;DHT22;5317;49.048;8.468;2023-08-21T08:05:36;29.60;79.50
10538;DHT22;5317;49.048;8.468;2023-08-21T08:08:03;29.70;79.60
10538;DHT22;5317;49.048;8.468;2023-08-21T08:10:30;29.70;79.50
10538;DHT22;5317;49.048;8.468;2023-08-21T08:12:57;29.80;79.10
10538;DHT22;5317;49.048;8.468;2023-08-21T08:15:25;29.90;78.60
10538;DHT22;5317;49.048;8.468;2023-08-21T08:17:54;30.00;78.20
10538;DHT22;5317;49.048;8.468;2023-08-21T08:20:21;30.00;78.10
10538;DHT22;5317;49.048;8.468;2023-08-21T08:22:48;30.10;78.60
10538;DHT22;5317;49.048;8.468;2023-08-21T08:25:15;30.10;77.20
10538;DHT22;5317;49.048;8.468;2023-08-21T08:27:43;30.20;77.20
10538;DHT22;5317;49.048;8.468;2023-08-21T08:30:10;30.20;77.30
10538;DHT22;5317;49.048;8.468;2023-08-21T08:32:39;30.30;77.70
10538;DHT22;5317;49.048;8.468;2023-08-21T08:35:07;30.40;78.60
10538;DHT22;5317;49.048;8.468;2023-08-21T08:37:34;30.50;77.60
10538;DHT22;5317;49.048;8.468;2023-08-21T08:40:00;30.60;77.00
10538;DHT22;5317;49.048;8.468;2023-08-21T08:42:28;30.60;77.00
10538;DHT22;5317;49.048;8.468;2023-08-21T08:44:54;30.70;76.60
10538;DHT22;5317;49.048;8.468;2023-08-21T08:47:22;30.80;75.30
10538;DHT22;5317;49.048;8.468;2023-08-21T08:49:54;30.90;74.70
10538;DHT22;5317;49.048;8.468;2023-08-21T08:52:21;31.00;74.00
10538;DHT22;5317;49.048;8.468;2023-08-21T08:54:49;31.10;73.80
10538;DHT22;5317;49.048;8.468;2023-08-21T08:57:16;31.20;73.00
10538;DHT22;5317;49.048;8.468;2023-08-21T08:59:43;31.30;72.70
10538;DHT22;5317;49.048;8.468;2023-08-21T09:02:10;31.30;72.80
10538;DHT22;5317;49.048;8.468;2023-08-21T09:04:37;31.50;73.40
10538;DHT22;5317;49.048;8.468;2023-08-21T09:07:09;31.60;72.50
10538;DHT22;5317;49.048;8.468;2023-08-21T09:09:39;31.70;71.60
10538;DHT22;5317;49.048;8.468;2023-08-21T09:12:10;31.80;72.20
10538;DHT22;5317;49.048;8.468;2023-08-21T09:14:39;31.80;70.90
10538;DHT22;5317;49.048;8.468;2023-08-21T09:17:06;31.90;71.30
10538;DHT22;5317;49.048;8.468;2023-08-21T09:19:33;32.00;70.80
10538;DHT22;5317;49.048;8.468;2023-08-21T09:22:08;32.00;70.50
10538;DHT22;5317;49.048;8.468;2023-08-21T09:24:36;32.10;70.40
10538;DHT22;5317;49.048;8.468;2023-08-21T09:27:03;32.20;70.20
10538;DHT22;5317;49.048;8.468;2023-08-21T09:29:38;32.40;71.20
10538;DHT22;5317;49.048;8.468;2023-08-21T09:32:06;32.40;70.70
10538;DHT22;5317;49.048;8.468;2023-08-21T09:34:35;32.60;70.50
10538;DHT22;5317;49.048;8.468;2023-08-21T09:37:05;32.70;69.90
10538;DHT22;5317;49.048;8.468;2023-08-21T09:39:35;32.80;70.30
10538;DHT22;5317;49.048;8.468;2023-08-21T09:42:05;32.90;68.50
10538;DHT22;5317;49.048;8.468;2023-08-21T09:44:43;33.00;68.60
10538;DHT22;5317;49.048;8.468;2023-08-21T09:47:11;33.00;67.90
10538;DHT22;5317;49.048;8.468;2023-08-21T09:49:38;33.10;68.30
10538;DHT22;5317;49.048;8.468;2023-08-21T09:52:06;33.20;68.20
10538;DHT22;5317;49.048;8.468;2023-08-21T09:54:37;33.40;68.00
10538;DHT22;5317;49.048;8.468;2023-08-21T09:57:04;33.50;66.90
10538;DHT22;5317;49.048;8.468;2023-08-21T09:59:32;33.60;67.50
10538;DHT22;5317;49.048;8.468;2023-08-21T10:01:59;33.70;67.60
10538;DHT22;5317;49.048;8.468;2023-08-21T10:04:28;33.80;66.00
10538;DHT22;5317;49.048;8.468;2023-08-21T10:06:56;33.90;65.80
10538;DHT22;5317;49.048;8.468;2023-08-21T10:09:24;34.10;66.00
10538;DHT22;5317;49.048;8.468;2023-08-21T10:11:55;34.10;64.40
10538;DHT22;5317;49.048;8.468;2023-08-21T10:14:23;34.30;63.60
10538;DHT22;5317;49.048;8.468;2023-08-21T10:16:51;34.40;63.00
10538;DHT22;5317;49.048;8.468;2023-08-21T10:19:19;34.50;63.20
10538;DHT22;5317;49.048;8.468;2023-08-21T10:21:47;34.70;63.50
10538;DHT22;5317;49.048;8.468;2023-08-21T10:24:26;34.80;62.70
10538;DHT22;5317;49.048;8.468;2023-08-21T10:26:58;34.80;61.00
10538;DHT22;5317;49.048;8.468;2023-08-21T10:29:25;35.00;59.90
10538;DHT22;5317;49.048;8.468;2023-08-21T10:31:59;35.00;59.30
10538;DHT22;5317;49.048;8.468;2023-08-21T10:34:32;35.10;59.60
10538;DHT22;5317;49.048;8.468;2023-08-21T10:37:07;35.10;59.60
10538;DHT22;5317;49.048;8.468;2023-08-21T10:39:35;35.20;59.40
10538;DHT22;5317;49.048;8.468;2023-08-21T10:42:06;35.40;59.70
10538;DHT22;5317;49.048;8.468;2023-08-21T10:44:34;35.50;58.90
10538;DHT22;5317;49.048;8.468;2023-08-21T10:47:14;35.60;58.90
10538;DHT22;5317;49.048;8.468;2023-08-21T10:49:43;35.70;57.70
10538;DHT22;5317;49.048;8.468;2023-08-21T10:52:09;35.70;58.60
10538;DHT22;5317;49.048;8.468;2023-08-21T10:54:45;35.70;57.20
10538;DHT22;5317;49.048;8.468;2023-08-21T10:57:13;35.80;57.30
10538;DHT22;5317;49.048;8.468;2023-08-21T10:59:50;36.00;58.30
10538;DHT22;5317;49.048;8.468;2023-08-21T11:02:17;35.90;55.60
10538;DHT22;5317;49.048;8.468;2023-08-21T11:04:44;36.00;56.30
10538;DHT22;5317;49.048;8.468;2023-08-21T11:07:11;36.10;55.70
10538;DHT22;5317;49.048;8.468;2023-08-21T11:09:38;36.20;55.90
10538;DHT22;5317;49.048;8.468;2023-08-21T11:12:07;36.30;55.30
10538;DHT22;5317;49.048;8.468;2023-08-21T11:14:35;36.40;54.70
10538;DHT22;5317;49.048;8.468;2023-08-21T11:17:02;36.50;53.70
10538;DHT22;5317;49.048;8.468;2023-08-21T11:19:31;36.60;54.00
10538;DHT22;5317;49.048;8.468;2023-08-21T11:21:59;36.60;54.00
10538;DHT22;5317;49.048;8.468;2023-08-21T11:24:43;36.70;53.70
10538;DHT22;5317;49.048;8.468;2023-08-21T11:27:12;36.80;52.70
10538;DHT22;5317;49.048;8.468;2023-08-21T11:29:42;36.80;51.80
10538;DHT22;5317;49.048;8.468;2023-08-21T11:32:10;36.60;51.30
10538;DHT22;5317;49.048;8.468;2023-08-21T11:34:37;36.50;51.50
10538;DHT22;5317;49.048;8.468;2023-08-21T11:37:05;36.60;52.10
10538;DHT22;5317;49.048;8.468;2023-08-21T11:39:44;36.60;51.30
10538;DHT22;5317;49.048;8.468;2023-08-21T11:42:11;36.60;50.40
10538;DHT22;5317;49.048;8.468;2023-08-21T11:44:45;36.70;52.00
10538;DHT22;5317;49.048;8.468;2023-08-21T11:47:13;36.80;52.70
10538;DHT22;5317;49.048;8.468;2023-08-21T11:49:41;36.90;51.80
10538;DHT22;5317;49.048;8.468;2023-08-21T11:52:09;37.10;52.20
10538;DHT22;5317;49.048;8.468;2023-08-21T11:54:37;37.20;52.10
10538;DHT22;5317;49.048;8.468;2023-08-21T11:57:06;37.30;51.60
10538;DHT22;5317;49.048;8.468;2023-08-21T11:59:33;37.40;51.70
10538;DHT22;5317;49.048;8.468;2023-08-21T12:02:09;37.40;50.90
10538;DHT22;5317;49.048;8.468;2023-08-21T12:04:36;37.50;51.00
10538;DHT22;5317;49.048;8.468;2023-08-21T12:07:03;37.60;50.90
10538;DHT22;5317;49.048;8.468;2023-08-21T12:09:30;37.60;50.80
10538;DHT22;5317;49.048;8.468;2023-08-21T12:11:57;37.80;50.80
10538;DHT22;5317;49.048;8.468;2023-08-21T12:14:24;37.80;50.80
10538;DHT22;5317;49.048;8.468;2023-08-21T12:16:51;38.00;49.80
10538;DHT22;5317;49.048;8.468;2023-08-21T12:19:19;38.10;49.90
10538;DHT22;5317;49.048;8.468;2023-08-21T12:21:47;38.20;49.80
10538;DHT22;5317;49.048;8.468;2023-08-21T12:24:13;38.30;50.10
10538;DHT22;5317;49.048;8.468;2023-08-21T12:26:40;38.40;49.80
10538;DHT22;5317;49.048;8.468;2023-08-21T12:29:07;38.50;49.90
10538;DHT22;5317;49.048;8.468;2023-08-21T12:31:34;38.60;50.00
10538;DHT22;5317;49.048;8.468;2023-08-21T12:34:02;38.80;49.90
10538;DHT22;5317;49.048;8.468;2023-08-21T12:36:30;38.90;49.50
10538;DHT22;5317;49.048;8.468;2023-08-21T12:38:57;38.90;49.10
10538;DHT22;5317;49.048;8.468;2023-08-21T12:41:24;39.00;48.70
10538;DHT22;5317;49.048;8.468;2023-08-21T12:43:51;39.00;47.40
10538;DHT22;5317;49.048;8.468;2023-08-21T12:46:17;38.90;47.70
10538;DHT22;5317;49.048;8.468;2023-08-21T12:48:44;38.90;48.60
10538;DHT22;5317;49.048;8.468;2023-08-21T12:51:11;39.00;48.70
10538;DHT22;5317;49.048;8.468;2023-08-21T12:53:39;39.20;49.40
10538;DHT22;5317;49.048;8.468;2023-08-21T12:56:06;39.30;48.70
10538;DHT22;5317;49.048;8.468;2023-08-21T12:58:33;39.40;48.50
10538;DHT22;5317;49.048;8.468;2023-08-21T13:01:00;39.50;48.10
10538;DHT22;5317;49.048;8.468;2023-08-21T13:03:28;39.50;48.30
10538;DHT22;5317;49.048;8.468;2023-08-21T13:05:55;39.60;48.40
10538;DHT22;5317;49.048;8.468;2023-08-21T13:08:22;39.50;48.00
10538;DHT22;5317;49.048;8.468;2023-08-21T13:10:50;39.40;47.50
10538;DHT22;5317;49.048;8.468;2023-08-21T13:13:17;39.30;47.10
10538;DHT22;5317;49.048;8.468;2023-08-21T13:15:44;39.30;47.60
10538;DHT22;5317;49.048;8.468;2023-08-21T13:18:12;39.20;47.80
10538;DHT22;5317;49.048;8.468;2023-08-21T13:20:40;39.30;47.80
10538;DHT22;5317;49.048;8.468;2023-08-21T13:23:07;39.20;48.20
10538;DHT22;5317;49.048;8.468;2023-08-21T13:25:34;39.10;47.90
10538;DHT22;5317;49.048;8.468;2023-08-21T13:28:03;39.10;48.20
10538;DHT22;5317;49.048;8.468;2023-08-21T13:30:30;39.00;48.20
10538;DHT22;5317;49.048;8.468;2023-08-21T13:32:57;39.10;48.80
10538;DHT22;5317;49.048;8.468;2023-08-21T13:35:24;39.10;48.60
10538;DHT22;5317;49.048;8.468;2023-08-21T13:37:51;39.20;48.20
10538;DHT22;5317;49.048;8.468;2023-08-21T13:40:18;39.30;47.50
10538;DHT22;5317;49.048;8.468;2023-08-21T13:42:46;39.40;47.20
10538;DHT22;5317;49.048;8.468;2023-08-21T13:45:19;39.40;46.70
10538;DHT22;5317;49.048;8.468;2023-08-21T13:47:47;39.50;46.00
10538;DHT22;5317;49.048;8.468;2023-08-21T13:50:15;39.50;46.50
10538;DHT22;5317;49.048;8.468;2023-08-21T13:52:43;39.60;46.00
10538;DHT22;5317;49.048;8.468;2023-08-21T13:55:10;39.70;46.30
10538;DHT22;5317;49.048;8.468;2023-08-21T13:57:38;39.80;45.90
10538;DHT22;5317;49.048;8.468;2023-08-21T14:00:06;39.70;45.20
10538;DHT22;5317;49.048;8.468;2023-08-21T14:02:38;39.70;45.60
10538;DHT22;5317;49.048;8.468;2023-08-21T14:05:07;39.80;46.10
10538;DHT22;5317;49.048;8.468;2023-08-21T14:07:34;39.90;45.40
10538;DHT22;5317;49.048;8.468;2023-08-21T14:10:02;39.80;44.70
10538;DHT22;5317;49.048;8.468;2023-08-21T14:12:30;39.80;43.70
10538;DHT22;5317;49.048;8.468;2023-08-21T14:14:57;39.80;43.60
10538;DHT22;5317;49.048;8.468;2023-08-21T14:17:25;39.90;44.20
10538;DHT22;5317;49.048;8.468;2023-08-21T14:19:53;40.00;44.00
10538;DHT22;5317;49.048;8.468;2023-08-21T14:22:20;40.00;42.50
10538;DHT22;5317;49.048;8.468;2023-08-21T14:24:47;40.00;41.80
10538;DHT22;5317;49.048;8.468;2023-08-21T14:27:14;40.00;42.70
10538;DHT22;5317;49.048;8.468;2023-08-21T14:29:42;39.90;42.50
10538;DHT22;5317;49.048;8.468;2023-08-21T14:32:09;39.90;42.60
10538;DHT22;5317;49.048;8.468;2023-08-21T14:34:36;39.80;41.60
10538;DHT22;5317;49.048;8.468;2023-08-21T14:37:04;39.60;42.20
10538;DHT22;5317;49.048;8.468;2023-08-21T14:39:31;39.50;41.50
10538;DHT22;5317;49.048;8.468;2023-08-21T14:41:58;39.50;42.70
10538;DHT22;5317;49.048;8.468;2023-08-21T14:44:27;39.70;43.00
10538;DHT22;5317;49.048;8.468;2023-08-21T14:46:54;39.80;43.10
10538;DHT22;5317;49.048;8.468;2023-08-21T14:49:21;39.90;43.00
10538;DHT22;5317;49.048;8.468;2023-08-21T14:51:48;40.00;43.10
10538;DHT22;5317;49.048;8.468;2023-08-21T14:54:16;40.10;42.40
10538;DHT22;5317;49.048;8.468;2023-08-21T14:56:43;40.10;42.80
10538;DHT22;5317;49.048;8.468;2023-08-21T14:59:10;40.20;43.10
10538;DHT22;5317;49.048;8.468;2023-08-21T15:01:37;40.20;42.70
10538;DHT22;5317;49.048;8.468;2023-08-21T15:04:05;40.20;42.10
10538;DHT22;5317;49.048;8.468;2023-08-21T15:06:32;40.20;42.20
10538;DHT22;5317;49.048;8.468;2023-08-21T15:08:59;40.20;41.70
10538;DHT22;5317;49.048;8.468;2023-08-21T15:11:27;40.20;41.60
10538;DHT22;5317;49.048;8.468;2023-08-21T15:13:54;40.00;41.10
10538;DHT22;5317;49.048;8.468;2023-08-21T15:16:20;39.90;42.10
10538;DHT22;5317;49.048;8.468;2023-08-21T15:18:48;40.00;42.40
10538;DHT22;5317;49.048;8.468;2023-08-21T15:21:17;40.00;42.20
10538;DHT22;5317;49.048;8.468;2023-08-21T15:23:44;40.00;42.20
10538;DHT22;5317;49.048;8.468;2023-08-21T15:26:11;39.90;41.70
10538;DHT22;5317;49.048;8.468;2023-08-21T15:28:39;39.80;42.00
10538;DHT22;5317;49.048;8.468;2023-08-21T15:31:06;39.60;41.60
10538;DHT22;5317;49.048;8.468;2023-08-21T15:33:34;39.50;42.20
10538;DHT22;5317;49.048;8.468;2023-08-21T15:36:01;39.50;42.30
10538;DHT22;5317;49.048;8.468;2023-08-21T15:38:28;39.50;43.00
10538;DHT22;5317;49.048;8.468;2023-08-21T15:40:55;39.50;43.10
10538;DHT22;5317;49.048;8.468;2023-08-21T15:43:22;39.40;43.40
10538;DHT22;5317;49.048;8.468;2023-08-21T15:45:51;39.40;43.40
10538;DHT22;5317;49.048;8.468;2023-08-21T15:48:18;39.30;43.40